Time;durP1;ratioP1;P1;durP2;ratioP2;P2;SDS_P1;SDS_P2;PMS_P1;PMS_P2;Temp;Humidity;BMP_temperature;BMP_pressure;BME280_temperature;BME280_humidity;BME280_pressure;Samples;Min_cycle;Max_cycle;Signal;HPM_P1;HPM_P2
2022/11/16 00:00:17;;;;;;;;;0.00;0.00;;;;;;;;5074259;28;45491;-82
2022/11/16 00:02:42;;;;;;;;;1.33;0.67;;;;;;;;5074826;27;45322;-82
2022/11/16 00:05:08;;;;;;;;;0.67;0.67;;;;;;;;5075265;27;45432;-81
2022/11/16 00:07:35;;;;;;;;;0.33;0.33;;;;;;;;5075767;28;45354;-81
2022/11/16 00:10:00;;;;;;;;;1.33;1.33;;;;;;;;5075650;28;45557;-81
2022/11/16 00:12:26;;;;;;;;;0.00;0.00;;;;;;;;5074553;28;46046;-81
2022/11/16 00:14:51;;;;;;;;;1.00;1.00;;;;;;;;5076457;28;45269;-82
2022/11/16 00:17:17;;;;;;;;;1.33;0.00;;;;;;;;5075970;28;45405;-78
2022/11/16 00:19:42;;;;;;;;;1.00;1.00;;;;;;;;5075920;28;45365;-78
2022/11/16 00:22:08;;;;;;;;;1.67;1.00;;;;;;;;5075159;27;45523;-77
2022/11/16 00:24:33;;;;;;;;;1.33;0.67;;;;;;;;5075980;28;45421;-78
2022/11/16 00:26:58;;;;;;;;;0.67;0.67;;;;;;;;5074496;28;45714;-79
2022/11/16 00:29:25;;;;;;;;;2.33;0.67;;;;;;;;5075616;27;45482;-78
2022/11/16 00:31:51;;;;;;;;;2.33;1.00;;;;;;;;5075078;28;45396;-78
2022/11/16 00:34:17;;;;;;;;;0.67;0.67;;;;;;;;5074640;28;45418;-78
2022/11/16 00:36:42;;;;;;;;;2.00;1.00;;;;;;;;5056621;28;45453;-78
2022/11/16 00:39:14;;;;;;;;;7.00;3.00;;;;;;;;5072268;27;46236;-78
2022/11/16 00:41:39;;;;;;;;;7.00;3.67;;;;;;;;5074896;28;46642;-77
2022/11/16 00:44:05;;;;;;;;;3.00;1.67;;;;;;;;5074920;28;45554;-78
2022/11/16 00:46:30;;;;;;;;;2.00;1.00;;;;;;;;5076093;28;45394;-78
2022/11/16 00:48:55;;;;;;;;;2.00;1.00;;;;;;;;5075443;27;45392;-78
2022/11/16 00:51:20;;;;;;;;;2.00;1.00;;;;;;;;5074963;28;46299;-77
2022/11/16 00:53:46;;;;;;;;;2.67;0.00;;;;;;;;5078030;27;45595;-77
2022/11/16 00:56:11;;;;;;;;;1.00;1.00;;;;;;;;5074104;28;45474;-77
2022/11/16 00:58:37;;;;;;;;;1.67;0.00;;;;;;;;5075253;28;45539;-77
2022/11/16 01:01:04;;;;;;;;;3.00;1.00;;;;;;;;5062638;27;45391;-78
2022/11/16 01:03:29;;;;;;;;;1.33;1.33;;;;;;;;5074622;27;45566;-78
2022/11/16 01:05:59;;;;;;;;;3.00;2.00;;;;;;;;5068757;28;45509;-78
2022/11/16 01:08:24;;;;;;;;;1.00;1.00;;;;;;;;5074808;27;45364;-78
2022/11/16 01:10:49;;;;;;;;;1.00;1.00;;;;;;;;5073410;28;47489;-78
2022/11/16 01:13:14;;;;;;;;;5.00;0.00;;;;;;;;5072599;28;45505;-78
2022/11/16 01:15:46;;;;;;;;;0.00;0.00;;;;;;;;5075594;28;45594;-82
2022/11/16 01:18:11;;;;;;;;;0.67;0.33;;;;;;;;5070655;27;45469;-81
2022/11/16 01:20:39;;;;;;;;;1.67;0.00;;;;;;;;5073915;27;46928;-82
2022/11/16 01:23:04;;;;;;;;;0.00;0.00;;;;;;;;5072259;27;45444;-82
2022/11/16 01:25:29;;;;;;;;;1.00;0.00;;;;;;;;5060389;28;45535;-82
2022/11/16 01:27:54;;;;;;;;;0.33;0.33;;;;;;;;5073779;28;45477;-82
2022/11/16 01:30:20;;;;;;;;;0.00;0.00;;;;;;;;5073136;28;46160;-82
2022/11/16 01:32:45;;;;;;;;;0.00;0.00;;;;;;;;5072204;27;45538;-81
2022/11/16 01:35:14;;;;;;;;;0.33;0.33;;;;;;;;5072005;27;45427;-81
2022/11/16 01:37:39;;;;;;;;;0.33;0.33;;;;;;;;5072896;28;45670;-81
2022/11/16 01:40:05;;;;;;;;;2.00;0.50;;;;;;;;5072226;28;46299;-81
2022/11/16 01:42:32;;;;;;;;;0.00;0.00;;;;;;;;5073840;27;45437;-81
2022/11/16 01:45:00;;;;;;;;;2.00;0.00;;;;;;;;5058112;28;45405;-81
2022/11/16 01:47:26;;;;;;;;;1.00;0.00;;;;;;;;5077202;27;45511;-80
2022/11/16 01:50:09;;;;;;;;;1.33;0.00;;;;;;;;5078419;28;45921;-80
2022/11/16 01:52:35;;;;;;;;;0.00;0.00;;;;;;;;5066628;27;45733;-80
2022/11/16 01:55:01;;;;;;;;;0.33;0.00;;;;;;;;5067101;27;45511;-80
2022/11/16 01:57:30;;;;;;;;;1.67;0.00;;;;;;;;5074754;27;45575;-80
2022/11/16 01:59:58;;;;;;;;;0.00;0.00;;;;;;;;5070228;27;45593;-80
2022/11/16 02:02:23;;;;;;;;;0.00;0.00;;;;;;;;5058805;28;45367;-80
2022/11/16 02:04:50;;;;;;;;;0.00;0.00;;;;;;;;5068614;28;45441;-79
2022/11/16 02:07:26;;;;;;;;;0.00;0.00;;;;;;;;5064567;28;45496;-80
2022/11/16 02:10:13;;;;;;;;;0.67;0.33;;;;;;;;5072465;27;46119;-80
2022/11/16 02:12:47;;;;;;;;;1.00;1.00;;;;;;;;5076213;27;45894;-79
2022/11/16 02:15:40;;;;;;;;;1.67;0.00;;;;;;;;5074763;27;45466;-79
2022/11/16 02:18:11;;;;;;;;;1.33;0.00;;;;;;;;4989024;28;46331;-79
2022/11/16 02:20:55;;;;;;;;;2.00;0.00;;;;;;;;4978063;28;47509;-79
2022/11/16 02:23:23;;;;;;;;;0.67;0.00;;;;;;;;4988472;28;45427;-79
2022/11/16 02:26:03;;;;;;;;;1.00;0.00;;;;;;;;4976617;28;47188;-79
2022/11/16 02:28:36;;;;;;;;;0.00;0.00;;;;;;;;5001001;28;45594;-79
2022/11/16 02:31:04;;;;;;;;;1.67;0.67;;;;;;;;4994850;28;46600;-79
2022/11/16 02:33:34;;;;;;;;;2.00;0.00;;;;;;;;4994934;28;45648;-79
2022/11/16 02:36:01;;;;;;;;;0.67;0.00;;;;;;;;4993478;28;45426;-79
2022/11/16 02:38:27;;;;;;;;;0.00;0.00;;;;;;;;4987096;28;45697;-79
2022/11/16 02:40:56;;;;;;;;;1.00;0.00;;;;;;;;4993535;28;46059;-79
2022/11/16 02:43:25;;;;;;;;;0.00;0.00;;;;;;;;4994231;28;45270;-79
2022/11/16 02:45:53;;;;;;;;;1.00;1.00;;;;;;;;4995182;28;45585;-81
2022/11/16 02:48:21;;;;;;;;;0.33;0.33;;;;;;;;4992487;28;45545;-80
2022/11/16 02:50:48;;;;;;;;;0.00;0.00;;;;;;;;4993468;28;45568;-79
2022/11/16 02:53:13;;;;;;;;;0.00;0.00;;;;;;;;4990517;28;45402;-80
2022/11/16 02:55:39;;;;;;;;;2.00;1.00;;;;;;;;5058366;27;45542;-80
2022/11/16 02:58:05;;;;;;;;;1.33;0.00;;;;;;;;5075534;27;45473;-80
2022/11/16 03:00:42;;;;;;;;;2.33;0.33;;;;;;;;5072796;27;45556;-80
2022/11/16 03:03:07;;;;;;;;;0.67;0.67;;;;;;;;5073501;27;45358;-80
2022/11/16 03:05:39;;;;;;;;;0.00;0.00;;;;;;;;5076568;27;45552;-81
2022/11/16 03:08:17;;;;;;;;;2.33;1.00;;;;;;;;5074436;27;45384;-80
2022/11/16 03:13:31;;;;;;;;;0.00;0.00;;;;;;;;5073300;27;45365;-80
2022/11/16 03:15:59;;;;;;;;;2.00;0.00;;;;;;;;5053472;28;45469;-80
2022/11/16 03:18:25;;;;;;;;;1.00;1.00;;;;;;;;5074809;27;45539;-80
2022/11/16 03:20:52;;;;;;;;;0.00;0.00;;;;;;;;5074460;27;45585;-80
2022/11/16 03:23:18;;;;;;;;;2.00;0.67;;;;;;;;5075149;27;45977;-80
2022/11/16 03:25:46;;;;;;;;;0.00;0.00;;;;;;;;5075697;27;45798;-80
2022/11/16 03:28:14;;;;;;;;;0.00;0.00;;;;;;;;5057188;28;45466;-80
2022/11/16 03:30:42;;;;;;;;;0.00;0.00;;;;;;;;5075217;27;45573;-80
2022/11/16 03:33:26;;;;;;;;;0.00;0.00;;;;;;;;5072546;27;45457;-80
2022/11/16 03:36:10;;;;;;;;;1.00;0.33;;;;;;;;5074104;27;45360;-80
2022/11/16 03:38:37;;;;;;;;;0.33;0.00;;;;;;;;5065591;27;45405;-80
2022/11/16 03:41:04;;;;;;;;;1.00;0.00;;;;;;;;5061843;27;48292;-80
2022/11/16 03:43:30;;;;;;;;;1.00;0.00;;;;;;;;5070509;28;45431;-80
2022/11/16 03:45:56;;;;;;;;;1.00;0.00;;;;;;;;5069636;27;45458;-80
2022/11/16 03:48:22;;;;;;;;;0.33;0.33;;;;;;;;5073135;27;45440;-80
2022/11/16 03:50:47;;;;;;;;;1.00;1.00;;;;;;;;5058776;27;45432;-80
2022/11/16 03:53:13;;;;;;;;;1.00;0.00;;;;;;;;5077155;27;45359;-80
2022/11/16 04:01:50;;;;;;;;;0.00;0.00;;;;;;;;5057529;27;45316;-90
2022/11/16 04:28:38;;;;;;;;;0.67;0.00;;;;;;;;5047295;28;45490;-89
2022/11/16 04:40:32;;;;;;;;;;;;;;;;;;;;;
2022/11/16 04:43:20;;;;;;;;;0.00;0.00;;;;;;;;5001129;28;66700;-89
2022/11/16 04:55:38;;;;;;;;;0.00;0.00;;;;;;;;5006522;28;45506;-89
2022/11/16 05:10:31;;;;;;;;;0.00;0.00;;;;;;;;5013559;28;45332;-87
2022/11/16 05:16:01;;;;;;;;;0.00;0.00;;;;;;;;5016048;28;45606;-87
2022/11/16 05:18:46;;;;;;;;;;;;;;;;;;;;;
2022/11/16 05:21:11;;;;;;;;;2.33;0.00;;;;;;;;5013250;28;60863;-90
2022/11/16 05:26:21;;;;;;;;;0.33;0.00;;;;;;;;5080070;27;45626;-87
2022/11/16 05:28:50;;;;;;;;;0.00;0.00;;;;;;;;5076683;27;45563;-89
2022/11/16 05:31:37;;;;;;;;;0.00;0.00;;;;;;;;5063589;28;45323;-87
2022/11/16 05:34:36;;;;;;;;;1.33;1.00;;;;;;;;5060764;27;47407;-89
2022/11/16 05:37:02;;;;;;;;;2.67;2.00;;;;;;;;5084090;27;45490;-89
2022/11/16 05:42:22;;;;;;;;;2.00;1.00;;;;;;;;4976549;28;45544;-88
2022/11/16 05:44:47;;;;;;;;;1.00;1.00;;;;;;;;4952244;28;48140;-89
2022/11/16 05:47:14;;;;;;;;;3.00;1.00;;;;;;;;4976918;28;45564;-89
2022/11/16 05:49:39;;;;;;;;;0.00;0.00;;;;;;;;4970616;28;45594;-89
2022/11/16 05:54:30;;;;;;;;;1.00;1.00;;;;;;;;5067302;22;62152;-94
2022/11/16 05:56:55;;;;;;;;;2.00;0.00;;;;;;;;5059497;28;45458;-89
2022/11/16 05:59:21;;;;;;;;;1.00;1.00;;;;;;;;5054311;28;45785;-91
2022/11/16 06:01:47;;;;;;;;;1.00;1.00;;;;;;;;5046869;28;45605;-90
2022/11/16 06:04:15;;;;;;;;;0.67;0.67;;;;;;;;5032990;28;47561;-91
2022/11/16 06:06:43;;;;;;;;;1.00;1.00;;;;;;;;5040144;28;45616;-88
2022/11/16 06:09:11;;;;;;;;;1.00;1.00;;;;;;;;5052763;28;46574;-88
2022/11/16 06:11:37;;;;;;;;;0.00;0.00;;;;;;;;5036240;28;45677;-87
2022/11/16 06:14:08;;;;;;;;;3.33;1.00;;;;;;;;5057105;28;46276;-87
2022/11/16 06:16:39;;;;;;;;;1.67;1.00;;;;;;;;5058547;28;45497;-86
2022/11/16 06:19:04;;;;;;;;;4.00;0.00;;;;;;;;5056343;28;45530;-88
2022/11/16 06:21:42;;;;;;;;;3.00;0.00;;;;;;;;5039829;28;45842;-88
2022/11/16 06:27:15;;;;;;;;;1.00;1.00;;;;;;;;5055769;28;45540;-89
2022/11/16 06:29:53;;;;;;;;;0.00;0.00;;;;;;;;5080983;22;46031;-94
2022/11/16 06:32:18;;;;;;;;;0.00;0.00;;;;;;;;5014208;28;46616;-94
2022/11/16 06:34:43;;;;;;;;;0.33;0.33;;;;;;;;5040698;28;46369;-94
2022/11/16 06:37:11;;;;;;;;;1.00;1.00;;;;;;;;5038734;28;45488;-93
2022/11/16 06:39:37;;;;;;;;;0.00;0.00;;;;;;;;5037841;28;45417;-94
2022/11/16 06:42:02;;;;;;;;;2.00;0.00;;;;;;;;5029248;28;45597;-94
2022/11/16 06:44:27;;;;;;;;;0.00;0.00;;;;;;;;5039449;28;46900;-93
2022/11/16 06:46:53;;;;;;;;;0.00;0.00;;;;;;;;5040345;28;45445;-93
2022/11/16 06:49:18;;;;;;;;;0.00;0.00;;;;;;;;5037464;28;45370;-93
2022/11/16 06:51:43;;;;;;;;;0.00;0.00;;;;;;;;5028832;28;45410;-93
2022/11/16 06:54:08;;;;;;;;;0.67;0.67;;;;;;;;5021788;28;46908;-93
2022/11/16 06:56:34;;;;;;;;;1.33;0.00;;;;;;;;5018880;28;45963;-94
2022/11/16 06:58:59;;;;;;;;;0.00;0.00;;;;;;;;5028143;28;45247;-94
2022/11/16 07:01:24;;;;;;;;;0.00;0.00;;;;;;;;5031037;28;45333;-93
2022/11/16 07:03:50;;;;;;;;;1.00;1.00;;;;;;;;5022978;28;46984;-93
2022/11/16 07:06:15;;;;;;;;;2.00;1.00;;;;;;;;5039998;28;45680;-95
2022/11/16 07:08:41;;;;;;;;;1.00;1.00;;;;;;;;5039382;28;45772;-92
2022/11/16 07:11:07;;;;;;;;;3.00;1.00;;;;;;;;5033705;28;45158;-94
2022/11/16 07:16:21;;;;;;;;;1.00;1.00;;;;;;;;5059098;28;45366;-94
2022/11/16 07:18:47;;;;;;;;;1.00;1.00;;;;;;;;5057151;28;45406;-92
2022/11/16 07:21:13;;;;;;;;;1.00;1.00;;;;;;;;5040971;28;45621;-93
2022/11/16 07:23:42;;;;;;;;;0.33;0.33;;;;;;;;5033380;28;47449;-93
2022/11/16 07:26:08;;;;;;;;;1.67;1.67;;;;;;;;5051880;28;45777;-96
2022/11/16 07:28:34;;;;;;;;;1.00;1.00;;;;;;;;5037351;28;45302;-96
2022/11/16 07:31:00;;;;;;;;;1.00;1.00;;;;;;;;5054826;28;45401;-95
2022/11/16 07:33:25;;;;;;;;;1.67;1.00;;;;;;;;5036015;28;47077;-92
2022/11/16 07:35:53;;;;;;;;;2.00;1.00;;;;;;;;5044295;22;45276;-94
2022/11/16 07:41:19;;;;;;;;;1.00;1.00;;;;;;;;5041411;22;45686;-88
2022/11/16 07:44:20;;;;;;;;;2.67;2.00;;;;;;;;5044374;28;45587;-89
2022/11/16 07:47:03;;;;;;;;;1.67;1.00;;;;;;;;5034383;28;45345;-89
2022/11/16 07:49:28;;;;;;;;;3.00;2.00;;;;;;;;5040902;28;45489;-89
2022/11/16 07:51:53;;;;;;;;;1.00;1.00;;;;;;;;5034654;28;45494;-89
2022/11/16 07:54:20;;;;;;;;;2.33;1.67;;;;;;;;5038099;28;46344;-89
2022/11/16 07:56:45;;;;;;;;;2.00;2.00;;;;;;;;5037272;28;45303;-88
2022/11/16 07:59:10;;;;;;;;;1.00;1.00;;;;;;;;5016319;28;45504;-89
2022/11/16 08:01:35;;;;;;;;;2.00;1.00;;;;;;;;5037726;28;45547;-88
2022/11/16 08:04:04;;;;;;;;;2.33;2.00;;;;;;;;5018494;28;47688;-89
2022/11/16 08:06:30;;;;;;;;;4.00;2.00;;;;;;;;5043064;28;45383;-88
2022/11/16 08:08:55;;;;;;;;;0.00;0.00;;;;;;;;5036485;28;45517;-89
2022/11/16 08:11:36;;;;;;;;;2.67;2.00;;;;;;;;5021569;28;45522;-84
2022/11/16 08:14:02;;;;;;;;;1.00;1.00;;;;;;;;5041258;28;47132;-84
2022/11/16 08:16:27;;;;;;;;;2.33;2.00;;;;;;;;5043207;28;45566;-85
2022/11/16 08:19:20;;;;;;;;;4.00;4.00;;;;;;;;5018745;28;45308;-85
2022/11/16 08:21:46;;;;;;;;;4.00;3.00;;;;;;;;5036656;28;45399;-83
2022/11/16 08:24:11;;;;;;;;;6.67;2.67;;;;;;;;5036492;28;46151;-85
2022/11/16 08:26:36;;;;;;;;;4.33;4.33;;;;;;;;5028826;28;45376;-85
2022/11/16 08:29:04;;;;;;;;;5.33;1.67;;;;;;;;5038813;28;45652;-85
2022/11/16 08:31:30;;;;;;;;;4.00;2.00;;;;;;;;5036531;28;45505;-85
2022/11/16 08:34:13;;;;;;;;;3.00;1.33;;;;;;;;5040900;28;45959;-85
2022/11/16 08:36:44;;;;;;;;;3.33;2.00;;;;;;;;5036391;28;45260;-84
2022/11/16 08:39:09;;;;;;;;;0.67;0.67;;;;;;;;5042636;28;45447;-85
2022/11/16 08:41:36;;;;;;;;;1.67;0.33;;;;;;;;5032121;28;45354;-84
2022/11/16 08:44:02;;;;;;;;;0.00;0.00;;;;;;;;5055444;28;45565;-84
2022/11/16 08:46:27;;;;;;;;;2.33;1.67;;;;;;;;5048600;28;45397;-85
2022/11/16 08:48:56;;;;;;;;;1.67;0.67;;;;;;;;5055684;28;45652;-85
2022/11/16 08:51:22;;;;;;;;;0.00;0.00;;;;;;;;5039878;28;45588;-85
2022/11/16 08:53:48;;;;;;;;;5.00;2.00;;;;;;;;5034577;28;47579;-85
2022/11/16 08:56:13;;;;;;;;;1.67;1.67;;;;;;;;5052837;28;45422;-85
2022/11/16 08:58:42;;;;;;;;;0.67;0.67;;;;;;;;5047650;28;45395;-85
2022/11/16 09:01:08;;;;;;;;;2.67;1.67;;;;;;;;5043275;28;45355;-85
2022/11/16 09:03:40;;;;;;;;;0.33;0.33;;;;;;;;5034069;28;48325;-85
2022/11/16 09:06:36;;;;;;;;;1.00;1.00;;;;;;;;5038587;28;45404;-86
2022/11/16 09:09:01;;;;;;;;;4.67;0.67;;;;;;;;5046546;28;45503;-84
2022/11/16 09:11:26;;;;;;;;;2.00;0.33;;;;;;;;5046301;28;45444;-84
2022/11/16 09:14:02;;;;;;;;;0.67;0.67;;;;;;;;5043027;28;45955;-84
2022/11/16 09:16:27;;;;;;;;;2.33;1.33;;;;;;;;5048294;28;45359;-84
2022/11/16 09:18:52;;;;;;;;;1.00;1.00;;;;;;;;5037730;28;45437;-85
2022/11/16 09:21:22;;;;;;;;;1.33;0.00;;;;;;;;5034534;28;45935;-84
2022/11/16 09:23:48;;;;;;;;;0.00;0.00;;;;;;;;5032209;28;47130;-84
2022/11/16 09:26:13;;;;;;;;;0.67;0.67;;;;;;;;5052614;28;45649;-85
2022/11/16 09:29:00;;;;;;;;;1.00;0.67;;;;;;;;5038730;28;45961;-85
2022/11/16 09:31:26;;;;;;;;;1.33;0.67;;;;;;;;5047652;28;45732;-85
2022/11/16 09:33:51;;;;;;;;;1.00;1.00;;;;;;;;5057958;28;45669;-85
2022/11/16 09:36:42;;;;;;;;;0.00;0.00;;;;;;;;5035429;28;45402;-86
2022/11/16 09:39:07;;;;;;;;;0.00;0.00;;;;;;;;5030851;28;45718;-84
2022/11/16 09:41:38;;;;;;;;;0.00;0.00;;;;;;;;5056443;28;45399;-88
2022/11/16 09:44:22;;;;;;;;;0.50;0.50;;;;;;;;5051899;28;46127;-86
2022/11/16 09:46:51;;;;;;;;;1.33;0.67;;;;;;;;5041171;28;45552;-86
2022/11/16 09:49:21;;;;;;;;;1.67;0.67;;;;;;;;5055378;28;45405;-85
2022/11/16 09:51:48;;;;;;;;;1.33;1.33;;;;;;;;5039841;28;45643;-88
2022/11/16 09:54:21;;;;;;;;;1.00;1.00;;;;;;;;5040616;28;47322;-88
2022/11/16 09:57:11;;;;;;;;;;;;;;;;;;;;;
2022/11/16 09:59:40;;;;;;;;;2.00;0.67;;;;;;;;4997410;28;70070;-87
2022/11/16 10:02:34;;;;;;;;;0.50;0.50;;;;;;;;5039965;28;45359;-88
2022/11/16 10:05:05;;;;;;;;;0.33;0.33;;;;;;;;5046109;28;48378;-90
2022/11/16 10:07:52;;;;;;;;;1.00;1.00;;;;;;;;5039955;28;45413;-86
2022/11/16 10:10:29;;;;;;;;;0.25;0.00;;;;;;;;5051341;28;45717;-84
2022/11/16 10:12:54;;;;;;;;;3.00;1.00;;;;;;;;5042384;28;45455;-83
2022/11/16 10:15:28;;;;;;;;;1.00;0.00;;;;;;;;5043386;28;46224;-83
2022/11/16 10:18:05;;;;;;;;;0.00;0.00;;;;;;;;5057701;28;45392;-90
2022/11/16 10:20:46;;;;;;;;;1.00;1.00;;;;;;;;5040197;28;45352;-84
2022/11/16 10:26:21;;;;;;;;;0.67;0.67;;;;;;;;5052183;28;45743;-85
2022/11/16 10:28:46;;;;;;;;;0.75;0.00;;;;;;;;5057027;28;45411;-84
2022/11/16 10:31:17;;;;;;;;;0.00;0.00;;;;;;;;5052665;28;45387;-83
2022/11/16 10:33:44;;;;;;;;;1.00;1.00;;;;;;;;5057693;28;45501;-83
2022/11/16 10:36:14;;;;;;;;;0.00;0.00;;;;;;;;5058023;28;45382;-83
2022/11/16 10:38:40;;;;;;;;;2.50;0.75;;;;;;;;5056256;28;46371;-84
2022/11/16 10:41:21;;;;;;;;;1.00;1.00;;;;;;;;5051447;28;45555;-85
2022/11/16 10:43:47;;;;;;;;;1.25;0.00;;;;;;;;5056889;28;45545;-84
2022/11/16 10:46:18;;;;;;;;;1.00;1.00;;;;;;;;5057451;28;46466;-83
2022/11/16 10:48:55;;;;;;;;;0.00;0.00;;;;;;;;5056036;28;45533;-85
2022/11/16 10:51:23;;;;;;;;;0.00;0.00;;;;;;;;5057524;28;45346;-87
2022/11/16 10:53:48;;;;;;;;;1.67;0.00;;;;;;;;5057769;28;45638;-86
2022/11/16 10:56:18;;;;;;;;;2.00;0.00;;;;;;;;5057221;28;46422;-85
2022/11/16 11:01:37;;;;;;;;;0.00;0.00;;;;;;;;5134263;23;45406;-85
2022/11/16 11:04:21;;;;;;;;;1.00;1.00;;;;;;;;5049981;28;45498;-85
2022/11/16 11:06:52;;;;;;;;;2.00;0.00;;;;;;;;5055502;28;46061;-85
2022/11/16 11:09:25;;;;;;;;;0.25;0.00;;;;;;;;5057779;28;45394;-83
2022/11/16 11:15:17;;;;;;;;;1.00;1.00;;;;;;;;5056309;28;45704;-83
2022/11/16 11:17:43;;;;;;;;;0.67;0.67;;;;;;;;5035322;28;48146;-83
2022/11/16 11:20:15;;;;;;;;;1.50;0.00;;;;;;;;5057886;28;45342;-84
2022/11/16 11:23:00;;;;;;;;;1.33;1.33;;;;;;;;5057716;28;45438;-83
2022/11/16 11:25:40;;;;;;;;;1.00;1.00;;;;;;;;5057440;28;45661;-85
2022/11/16 11:28:17;;;;;;;;;2.00;1.00;;;;;;;;5045643;28;45971;-82
2022/11/16 11:30:52;;;;;;;;;1.00;1.00;;;;;;;;5057095;28;45316;-84
2022/11/16 11:33:20;;;;;;;;;4.00;0.33;;;;;;;;5057854;28;45584;-84
2022/11/16 11:35:55;;;;;;;;;0.00;0.00;;;;;;;;5057380;28;45498;-83
2022/11/16 11:38:20;;;;;;;;;1.67;1.00;;;;;;;;5057702;28;46304;-83
2022/11/16 11:41:07;;;;;;;;;3.67;0.33;;;;;;;;5057418;28;45347;-83
2022/11/16 11:43:33;;;;;;;;;2.00;2.00;;;;;;;;5056723;28;45775;-82
2022/11/16 11:46:04;;;;;;;;;2.00;2.00;;;;;;;;5057422;28;45383;-83
2022/11/16 11:48:39;;;;;;;;;2.00;2.00;;;;;;;;5057131;28;45695;-83
2022/11/16 11:51:16;;;;;;;;;1.00;0.00;;;;;;;;5039310;28;46146;-83
2022/11/16 11:53:41;;;;;;;;;2.75;1.00;;;;;;;;5057098;28;45580;-84
2022/11/16 11:58:50;;;;;;;;;1.33;1.00;;;;;;;;5071332;23;45318;-84
2022/11/16 12:01:31;;;;;;;;;1.33;1.33;;;;;;;;5064483;28;45310;-84
2022/11/16 12:07:21;;;;;;;;;0.50;0.00;;;;;;;;5057157;28;45508;-83
2022/11/16 12:09:51;;;;;;;;;1.00;1.00;;;;;;;;5057128;28;46793;-84
2022/11/16 12:12:39;;;;;;;;;1.50;0.75;;;;;;;;5056857;28;45502;-84
2022/11/16 12:15:19;;;;;;;;;2.50;0.50;;;;;;;;5038242;28;45602;-84
2022/11/16 12:18:10;;;;;;;;;0.33;0.33;;;;;;;;5057419;28;45636;-84
2022/11/16 12:20:54;;;;;;;;;1.00;1.00;;;;;;;;5044392;28;46105;-84
2022/11/16 12:23:50;;;;;;;;;0.00;0.00;;;;;;;;5056421;28;45569;-84
2022/11/16 12:26:18;;;;;;;;;0.00;0.00;;;;;;;;5038125;28;45525;-84
2022/11/16 12:28:47;;;;;;;;;1.25;0.25;;;;;;;;5038499;28;45503;-84
2022/11/16 12:31:26;;;;;;;;;2.75;1.00;;;;;;;;5056073;28;45488;-84
2022/11/16 12:33:58;;;;;;;;;2.00;1.00;;;;;;;;5067141;28;45252;-84
2022/11/16 12:39:17;;;;;;;;;1.00;1.00;;;;;;;;5077151;28;45532;-84
2022/11/16 12:42:11;;;;;;;;;0.67;0.67;;;;;;;;5076889;28;45802;-84
2022/11/16 12:44:48;;;;;;;;;2.00;0.75;;;;;;;;5036112;28;45594;-83
2022/11/16 12:47:26;;;;;;;;;2.00;0.00;;;;;;;;5076754;28;45487;-83
2022/11/16 12:50:00;;;;;;;;;2.00;2.00;;;;;;;;5065441;28;45622;-84
2022/11/16 12:52:43;;;;;;;;;2.25;1.50;;;;;;;;5075974;28;45900;-83
2022/11/16 12:55:15;;;;;;;;;0.00;0.00;;;;;;;;5076732;28;45425;-83
2022/11/16 12:57:52;;;;;;;;;1.00;0.00;;;;;;;;5057913;28;45698;-84
2022/11/16 13:00:18;;;;;;;;;1.00;0.00;;;;;;;;5072416;28;45413;-83
2022/11/16 13:02:52;;;;;;;;;1.67;1.00;;;;;;;;5076587;28;46274;-83
2022/11/16 13:05:20;;;;;;;;;2.00;0.75;;;;;;;;5058234;28;45965;-84
2022/11/16 13:07:53;;;;;;;;;2.00;2.00;;;;;;;;5058458;28;45401;-83
2022/11/16 13:10:21;;;;;;;;;2.67;1.00;;;;;;;;5076528;28;45538;-83
2022/11/16 13:12:50;;;;;;;;;0.00;0.00;;;;;;;;5076118;28;47238;-84
2022/11/16 13:15:18;;;;;;;;;5.00;2.00;;;;;;;;5058253;28;45446;-84
2022/11/16 13:17:49;;;;;;;;;4.75;1.25;;;;;;;;5076505;28;45559;-84
2022/11/16 13:20:17;;;;;;;;;3.67;1.33;;;;;;;;5076506;28;45411;-84
2022/11/16 13:22:50;;;;;;;;;4.33;1.00;;;;;;;;5076433;28;45471;-84
2022/11/16 13:25:27;;;;;;;;;0.50;0.50;;;;;;;;5076133;28;45681;-84
2022/11/16 13:27:55;;;;;;;;;2.75;1.00;;;;;;;;5075742;28;45367;-84
2022/11/16 13:30:35;;;;;;;;;2.50;1.00;;;;;;;;5076616;28;45470;-83
2022/11/16 13:33:06;;;;;;;;;1.00;1.00;;;;;;;;5076087;28;45612;-84
2022/11/16 13:35:34;;;;;;;;;0.50;0.50;;;;;;;;5076228;28;45341;-84
2022/11/16 13:37:59;;;;;;;;;2.00;1.00;;;;;;;;5076175;28;45346;-85
2022/11/16 13:43:07;;;;;;;;;1.00;1.00;;;;;;;;5036472;22;45245;-83
2022/11/16 13:45:41;;;;;;;;;2.00;1.00;;;;;;;;5020028;28;45450;-84
2022/11/16 13:48:16;;;;;;;;;3.00;0.75;;;;;;;;5032206;28;45544;-87
2022/11/16 13:50:46;;;;;;;;;1.67;1.67;;;;;;;;5038976;28;45541;-84
2022/11/16 13:53:26;;;;;;;;;1.00;1.00;;;;;;;;5031095;28;47005;-84
2022/11/16 13:55:57;;;;;;;;;0.00;0.00;;;;;;;;5036382;28;45498;-83
2022/11/16 13:58:24;;;;;;;;;2.00;0.75;;;;;;;;5038466;28;45682;-84
2022/11/16 14:01:22;;;;;;;;;3.00;1.00;;;;;;;;5043951;28;45473;-84
2022/11/16 14:03:51;;;;;;;;;3.00;1.00;;;;;;;;4956611;28;46520;-85
2022/11/16 14:06:54;;;;;;;;;2.00;0.50;;;;;;;;4956187;28;45508;-83
2022/11/16 14:09:40;;;;;;;;;2.00;0.00;;;;;;;;4901221;28;45648;-84
2022/11/16 14:12:24;;;;;;;;;0.67;0.67;;;;;;;;4899403;28;45560;-82
2022/11/16 14:15:01;;;;;;;;;0.75;0.75;;;;;;;;4909640;28;45717;-82
2022/11/16 14:20:44;;;;;;;;;0.50;0.25;;;;;;;;4904285;28;45815;-84
2022/11/16 14:23:35;;;;;;;;;1.00;1.00;;;;;;;;4903378;28;45683;-82
2022/11/16 14:26:14;;;;;;;;;0.00;0.00;;;;;;;;4906930;28;46398;-82
2022/11/16 14:28:51;;;;;;;;;2.00;1.00;;;;;;;;4900746;28;45597;-81
2022/11/16 14:31:21;;;;;;;;;2.00;0.75;;;;;;;;4900009;28;45518;-81
2022/11/16 14:33:49;;;;;;;;;0.50;0.00;;;;;;;;4911451;28;45513;-80
2022/11/16 14:36:14;;;;;;;;;2.50;1.00;;;;;;;;4901869;28;45883;-79
2022/11/16 14:38:43;;;;;;;;;0.00;0.00;;;;;;;;4894958;28;45379;-78
2022/11/16 14:41:18;;;;;;;;;4.33;1.00;;;;;;;;4939365;28;45589;-82
2022/11/16 14:43:45;;;;;;;;;4.67;2.33;;;;;;;;4975854;28;45515;-81
2022/11/16 14:46:21;;;;;;;;;2.33;2.33;;;;;;;;5017130;28;46254;-80
2022/11/16 14:48:48;;;;;;;;;4.00;3.00;;;;;;;;5054241;28;45492;-80
2022/11/16 14:51:28;;;;;;;;;2.33;1.00;;;;;;;;5060267;28;45682;-78
2022/11/16 14:54:16;;;;;;;;;1.00;1.00;;;;;;;;5054421;28;45509;-78
2022/11/16 14:56:57;;;;;;;;;2.00;1.33;;;;;;;;5059165;28;47077;-77
2022/11/16 14:59:22;;;;;;;;;3.00;2.00;;;;;;;;5063008;28;45611;-79
2022/11/16 15:01:48;;;;;;;;;1.00;0.33;;;;;;;;5063367;28;45932;-80
2022/11/16 15:04:15;;;;;;;;;3.33;3.00;;;;;;;;5062888;28;45636;-80
2022/11/16 15:06:49;;;;;;;;;3.00;2.00;;;;;;;;5053497;28;45568;-82
2022/11/16 15:09:18;;;;;;;;;2.00;2.00;;;;;;;;5056073;28;45620;-80
2022/11/16 15:14:32;;;;;;;;;2.00;2.00;;;;;;;;5057270;28;45526;-80
2022/11/16 15:16:58;;;;;;;;;4.00;2.00;;;;;;;;5056254;28;46670;-80
2022/11/16 15:19:23;;;;;;;;;3.00;3.00;;;;;;;;5057108;28;45601;-80
2022/11/16 15:21:55;;;;;;;;;1.33;1.33;;;;;;;;5056620;28;45472;-81
2022/11/16 15:24:21;;;;;;;;;3.00;1.00;;;;;;;;5056865;28;45477;-81
2022/11/16 15:26:47;;;;;;;;;4.00;2.33;;;;;;;;5056666;28;45698;-81
2022/11/16 15:29:19;;;;;;;;;1.00;1.00;;;;;;;;5056626;28;45336;-81
2022/11/16 15:31:44;;;;;;;;;2.33;1.67;;;;;;;;5056737;28;45567;-82
2022/11/16 15:34:15;;;;;;;;;4.67;4.67;;;;;;;;5056369;28;45637;-82
2022/11/16 15:36:41;;;;;;;;;8.33;5.67;;;;;;;;5056198;28;46081;-81
2022/11/16 15:39:29;;;;;;;;;2.67;2.67;;;;;;;;5056409;28;45367;-82
2022/11/16 15:41:54;;;;;;;;;2.00;2.00;;;;;;;;5058591;28;45442;-82
2022/11/16 15:44:21;;;;;;;;;2.33;2.33;;;;;;;;5055525;28;45441;-83
2022/11/16 15:46:48;;;;;;;;;6.00;4.00;;;;;;;;5055327;28;45620;-81
2022/11/16 15:49:26;;;;;;;;;3.00;3.00;;;;;;;;5052975;28;45524;-82
2022/11/16 15:51:51;;;;;;;;;2.00;2.00;;;;;;;;5055641;28;45348;-81
2022/11/16 15:54:22;;;;;;;;;2.00;2.00;;;;;;;;5038388;28;45522;-82
2022/11/16 15:56:49;;;;;;;;;3.00;3.00;;;;;;;;5056181;28;46596;-82
2022/11/16 15:59:40;;;;;;;;;2.67;2.67;;;;;;;;5055611;28;45564;-81
2022/11/16 16:02:15;;;;;;;;;6.33;3.67;;;;;;;;5042784;28;45601;-82
2022/11/16 16:04:42;;;;;;;;;3.33;2.00;;;;;;;;5056639;28;45414;-81
2022/11/16 16:07:08;;;;;;;;;2.33;2.33;;;;;;;;5053180;28;47070;-81
2022/11/16 16:09:38;;;;;;;;;1.33;1.33;;;;;;;;5059355;28;45507;-81
2022/11/16 16:12:23;;;;;;;;;4.33;3.33;;;;;;;;5056685;28;45731;-82
2022/11/16 16:14:49;;;;;;;;;2.00;2.00;;;;;;;;5062052;28;45632;-81
2022/11/16 16:17:22;;;;;;;;;2.67;2.33;;;;;;;;5036161;28;48551;-81
2022/11/16 16:19:55;;;;;;;;;2.00;2.00;;;;;;;;5055119;28;45456;-81
2022/11/16 16:22:26;;;;;;;;;6.75;2.25;;;;;;;;5055422;28;45339;-81
2022/11/16 16:24:52;;;;;;;;;3.00;1.00;;;;;;;;5055693;28;45587;-82
2022/11/16 16:27:22;;;;;;;;;5.33;2.00;;;;;;;;5055121;28;46410;-82
2022/11/16 16:29:48;;;;;;;;;2.33;1.00;;;;;;;;5055232;28;45322;-82
2022/11/16 16:32:27;;;;;;;;;3.33;1.00;;;;;;;;5054927;28;45492;-82
2022/11/16 16:35:18;;;;;;;;;3.33;2.00;;;;;;;;5055003;28;45576;-82
2022/11/16 16:37:46;;;;;;;;;2.67;1.00;;;;;;;;5041059;28;45476;-81
2022/11/16 16:40:12;;;;;;;;;7.67;6.00;;;;;;;;5054315;28;45577;-82
2022/11/16 16:42:40;;;;;;;;;3.00;3.00;;;;;;;;5042095;28;45438;-82
2022/11/16 16:45:17;;;;;;;;;4.00;2.67;;;;;;;;5035332;28;45365;-82
2022/11/16 16:47:42;;;;;;;;;5.33;5.00;;;;;;;;5035263;28;46277;-82
2022/11/16 16:51:04;;;;;;;;;3.67;3.67;;;;;;;;5015967;28;45586;-84
2022/11/16 16:53:22;;;;;;;;;6.00;2.33;;;;;;;;5033940;28;45264;-84
2022/11/16 16:55:47;;;;;;;;;3.00;3.00;;;;;;;;5018041;28;45606;-85
2022/11/16 16:58:13;;;;;;;;;7.00;3.67;;;;;;;;5036963;28;46444;-84